Time;durP1;ratioP1;P1;durP2;ratioP2;P2;SDS_P1;SDS_P2;PMS_P1;PMS_P2;Temp;Humidity;BMP_temperature;BMP_pressure;BME280_temperature;BME280_humidity;BME280_pressure;Samples;Min_cycle;Max_cycle;Signal;HPM_P1;HPM_P2
2022/07/06 00:04:03;;;;;;;0.60;0.30;;;18.40;57.20;20.60;94479.00;;;;10435992;28;45100;-68
2022/07/06 00:09:23;;;;;;;0.80;0.40;;;18.40;57.20;20.60;94480.00;;;;10435597;28;45189;-67
2022/07/06 00:14:45;;;;;;;0.88;0.40;;;18.40;57.00;20.60;94479.00;;;;10435517;28;45126;-68
2022/07/06 00:20:07;;;;;;;0.43;0.43;;;18.40;57.10;20.50;94466.00;;;;10435380;28;45114;-68
2022/07/06 00:25:28;;;;;;;0.57;0.40;;;18.40;57.20;20.60;94477.00;;;;10435174;28;45263;-67
2022/07/06 00:30:50;;;;;;;0.77;0.40;;;18.50;57.40;20.60;94474.00;;;;10440555;28;45232;-68
2022/07/06 00:36:10;;;;;;;0.82;0.32;;;18.40;56.70;20.50;94457.00;;;;10442347;28;45871;-68
2022/07/06 00:41:31;;;;;;;0.20;0.20;;;18.40;56.90;20.50;94468.00;;;;10442380;28;45181;-68
2022/07/06 00:46:53;;;;;;;0.30;0.30;;;18.40;57.10;20.50;94466.00;;;;10442680;28;45501;-68
2022/07/06 00:52:15;;;;;;;0.20;0.20;;;18.40;56.70;20.50;94471.00;;;;10442207;28;45060;-68
2022/07/06 00:57:36;;;;;;;0.30;0.30;;;18.40;57.10;20.50;94463.00;;;;10441375;28;45808;-68
2022/07/06 01:02:58;;;;;;;0.30;0.30;;;18.30;56.90;20.50;94459.00;;;;10435884;28;45271;-68
2022/07/06 01:08:18;;;;;;;0.38;0.38;;;18.40;56.90;20.50;94457.00;;;;10440044;28;45445;-68
2022/07/06 01:13:40;;;;;;;0.30;0.30;;;18.40;56.90;20.50;94465.00;;;;10441888;28;45680;-68
2022/07/06 01:19:02;;;;;;;0.30;0.30;;;18.40;56.90;20.50;94455.00;;;;10441040;28;45224;-68
2022/07/06 01:24:24;;;;;;;0.38;0.38;;;18.40;56.80;20.50;94453.00;;;;10441608;28;45879;-68
2022/07/06 01:29:44;;;;;;;0.30;0.30;;;18.40;56.80;20.50;94466.00;;;;10440427;28;45113;-68
2022/07/06 01:35:08;;;;;;;0.20;0.20;;;18.30;57.50;20.50;94463.00;;;;10440386;28;45234;-68
2022/07/06 01:40:29;;;;;;;0.50;0.40;;;18.40;56.80;20.50;94455.00;;;;10439252;28;45235;-68
2022/07/06 01:45:50;;;;;;;0.60;0.40;;;18.40;56.90;20.50;94473.00;;;;10440503;28;45385;-68
2022/07/06 01:51:11;;;;;;;0.70;0.45;;;18.30;56.80;20.50;94458.00;;;;10439868;28;45210;-67
2022/07/06 01:56:33;;;;;;;1.52;0.60;;;18.40;56.90;20.50;94455.00;;;;10440022;28;45154;-68
2022/07/06 02:01:54;;;;;;;0.30;0.30;;;18.40;56.90;20.50;94460.00;;;;10439318;28;45235;-68
2022/07/06 02:07:14;;;;;;;0.82;0.50;;;18.40;56.90;20.50;94456.00;;;;10439056;28;45275;-68
2022/07/06 02:12:36;;;;;;;0.55;0.40;;;18.30;56.90;20.50;94468.00;;;;10439652;28;45423;-68
2022/07/06 02:17:56;;;;;;;1.20;0.40;;;18.40;57.00;20.50;94449.00;;;;10438914;28;45101;-68
2022/07/06 02:23:17;;;;;;;0.60;0.30;;;18.30;56.90;20.50;94447.00;;;;10438878;28;45146;-68
2022/07/06 02:28:39;;;;;;;0.32;0.20;;;18.30;57.10;20.50;94452.00;;;;10438957;28;45267;-68
2022/07/06 02:33:59;;;;;;;0.68;0.40;;;18.30;57.00;20.50;94444.00;;;;10438869;28;45194;-68
2022/07/06 02:39:20;;;;;;;0.35;0.30;;;18.40;57.10;20.50;94461.00;;;;10438350;28;45835;-68
2022/07/06 02:44:42;;;;;;;0.35;0.32;;;18.30;57.00;20.50;94462.00;;;;10438290;28;45244;-68
2022/07/06 02:50:02;;;;;;;0.73;0.30;;;18.30;57.00;20.50;94465.00;;;;10437585;28;45252;-67
2022/07/06 02:55:23;;;;;;;0.30;0.30;;;18.30;57.00;20.50;94479.00;;;;10437844;28;45775;-68
2022/07/06 03:00:45;;;;;;;0.30;0.30;;;18.30;56.90;20.50;94477.00;;;;10437535;28;45101;-68
2022/07/06 03:06:06;;;;;;;0.55;0.35;;;18.30;57.00;20.50;94480.00;;;;10437495;28;45130;-68
2022/07/06 03:11:27;;;;;;;0.77;0.40;;;18.30;57.00;20.50;94487.00;;;;10436975;28;45248;-68
2022/07/06 03:16:49;;;;;;;0.40;0.40;;;18.30;56.80;20.40;94488.00;;;;10437361;28;45825;-68
2022/07/06 03:22:10;;;;;;;0.30;0.30;;;18.30;56.60;20.40;94476.00;;;;10436674;28;45187;-68
2022/07/06 03:27:30;;;;;;;1.40;0.30;;;18.30;56.60;20.40;94482.00;;;;10436602;28;45855;-68
2022/07/06 03:32:52;;;;;;;0.43;0.30;;;18.30;56.60;20.40;94478.00;;;;10436834;28;45158;-68
2022/07/06 03:38:13;;;;;;;0.95;0.40;;;18.30;56.60;20.40;94470.00;;;;10436148;28;45125;-68
2022/07/06 03:43:33;;;;;;;0.22;0.20;;;18.30;56.60;20.40;94477.00;;;;10436613;28;45139;-68
2022/07/06 03:48:55;;;;;;;0.60;0.32;;;18.30;56.50;20.40;94485.00;;;;10435799;28;45241;-68
2022/07/06 03:54:16;;;;;;;0.47;0.30;;;18.30;56.60;20.40;94481.00;;;;10436643;28;45238;-68
2022/07/06 03:59:36;;;;;;;0.28;0.28;;;18.20;56.40;20.40;94479.00;;;;10435641;28;45442;-67
2022/07/06 04:04:58;;;;;;;0.63;0.40;;;18.30;56.50;20.40;94479.00;;;;10435032;28;45106;-67
2022/07/06 04:10:19;;;;;;;0.40;0.40;;;18.30;56.40;20.40;94476.00;;;;10435763;28;45339;-67
2022/07/06 04:15:40;;;;;;;0.40;0.40;;;18.20;56.30;20.40;94474.00;;;;10435606;28;45792;-68
2022/07/06 04:21:02;;;;;;;0.30;0.30;;;18.20;56.30;20.40;94472.00;;;;10435562;28;45252;-68
2022/07/06 04:26:23;;;;;;;0.30;0.30;;;18.20;56.20;20.40;94475.00;;;;10435208;28;45204;-68
2022/07/06 04:31:43;;;;;;;0.52;0.40;;;18.20;56.20;20.40;94474.00;;;;10435614;28;45217;-68
2022/07/06 04:37:05;;;;;;;0.52;0.52;;;18.20;56.20;20.40;94481.00;;;;10435229;28;45170;-68
2022/07/06 04:42:26;;;;;;;0.30;0.30;;;18.20;56.30;20.40;94478.00;;;;10435048;28;45841;-68
2022/07/06 04:47:47;;;;;;;0.32;0.30;;;18.20;56.40;20.40;94469.00;;;;10434511;28;45887;-67
2022/07/06 04:53:09;;;;;;;0.70;0.40;;;18.20;56.40;20.40;94484.00;;;;10434958;28;45048;-66
2022/07/06 04:58:29;;;;;;;0.30;0.30;;;18.20;56.30;20.40;94484.00;;;;10433345;28;45185;-66
2022/07/06 05:03:50;;;;;;;0.80;0.32;;;18.20;56.40;20.40;94479.00;;;;10434179;28;45847;-68
2022/07/06 05:09:12;;;;;;;0.30;0.30;;;18.20;56.40;20.40;94495.00;;;;10434106;28;45265;-67
2022/07/06 05:14:32;;;;;;;0.30;0.30;;;18.30;56.40;20.40;94495.00;;;;10435820;28;45228;-67
2022/07/06 05:19:52;;;;;;;0.60;0.35;;;18.30;56.30;20.40;94498.00;;;;10440009;28;45847;-67
2022/07/06 05:25:14;;;;;;;0.68;0.50;;;18.30;55.70;20.40;94486.00;;;;10441467;28;45318;-67
2022/07/06 05:30:35;;;;;;;0.60;0.32;;;18.30;55.20;20.40;94500.00;;;;10440421;28;45701;-67
2022/07/06 05:35:56;;;;;;;0.70;0.50;;;18.20;55.50;20.40;94505.00;;;;10440323;28;45152;-66
2022/07/06 05:41:17;;;;;;;0.30;0.30;;;18.20;55.10;20.40;94505.00;;;;10440415;28;45185;-66
2022/07/06 05:46:38;;;;;;;1.40;0.40;;;18.30;54.80;20.40;94514.00;;;;10439830;28;45794;-69
2022/07/06 05:51:58;;;;;;;0.45;0.38;;;18.20;55.10;20.40;94515.00;;;;10440070;28;45747;-66
2022/07/06 05:57:20;;;;;;;0.40;0.40;;;18.20;55.20;20.40;94513.00;;;;10438861;28;45127;-66
2022/07/06 06:02:41;;;;;;;1.25;0.60;;;18.20;55.10;20.40;94515.00;;;;10503796;22;45160;-65
2022/07/06 06:08:02;;;;;;;0.95;0.40;;;18.20;53.90;20.40;94522.00;;;;10480750;28;45250;-65
2022/07/06 06:13:24;;;;;;;0.80;0.55;;;18.20;55.10;20.40;94522.00;;;;10481069;28;45188;-66
2022/07/06 06:18:44;;;;;;;0.80;0.40;;;18.20;55.40;20.30;94531.00;;;;10479215;28;46111;-65
2022/07/06 06:24:06;;;;;;;0.82;0.40;;;18.20;54.80;20.40;94528.00;;;;10480607;28;45133;-65
2022/07/06 06:29:28;;;;;;;1.08;0.50;;;18.20;54.60;20.40;94531.00;;;;10478770;28;45197;-66
2022/07/06 06:34:49;;;;;;;1.63;0.50;;;18.20;55.20;20.40;94513.00;;;;10480203;28;45246;-66
2022/07/06 06:40:11;;;;;;;0.68;0.50;;;18.20;55.20;20.40;94523.00;;;;10479332;28;45699;-66
2022/07/06 06:45:34;;;;;;;1.08;0.45;;;18.20;55.40;20.40;94514.00;;;;10479535;28;45243;-65
2022/07/06 06:50:54;;;;;;;0.50;0.47;;;18.20;55.40;20.40;94515.00;;;;10478054;28;45190;-65
2022/07/06 06:56:14;;;;;;;1.20;0.50;;;18.20;55.40;20.40;94525.00;;;;10479043;28;45230;-66
2022/07/06 07:01:37;;;;;;;0.98;0.50;;;18.20;55.60;20.40;94518.00;;;;10478747;28;46377;-65
2022/07/06 07:06:58;;;;;;;0.80;0.52;;;18.20;55.50;20.40;94527.00;;;;10478907;28;45182;-64
2022/07/06 07:12:19;;;;;;;0.85;0.40;;;18.20;55.60;20.40;94517.00;;;;10479620;28;45161;-65
2022/07/06 07:17:41;;;;;;;0.93;0.60;;;18.20;55.60;20.40;94514.00;;;;10478963;28;45167;-65
2022/07/06 07:23:02;;;;;;;1.67;0.50;;;18.20;55.60;20.40;94514.00;;;;10478809;28;45264;-65
2022/07/06 07:28:22;;;;;;;0.50;0.40;;;18.20;55.60;20.40;94511.00;;;;10477920;28;45133;-65
2022/07/06 07:33:44;;;;;;;0.63;0.50;;;18.20;55.70;20.40;94510.00;;;;10478637;28;45742;-65
2022/07/06 07:39:05;;;;;;;0.70;0.40;;;18.20;55.70;20.40;94517.00;;;;10476831;28;45155;-66
2022/07/06 07:44:27;;;;;;;0.70;0.43;;;18.20;55.70;20.40;94507.00;;;;10478346;28;45218;-65
2022/07/06 07:49:48;;;;;;;0.95;0.45;;;18.20;55.70;20.40;94518.00;;;;10477635;28;45178;-66
2022/07/06 07:55:10;;;;;;;0.40;0.40;;;18.20;55.70;20.40;94516.00;;;;10477796;28;45758;-66
2022/07/06 08:00:30;;;;;;;0.60;0.50;;;18.20;55.80;20.40;94522.00;;;;10476553;28;45770;-65
2022/07/06 08:05:52;;;;;;;0.50;0.50;;;18.20;55.80;20.40;94526.00;;;;10477377;28;45214;-65
2022/07/06 08:11:13;;;;;;;0.63;0.40;;;18.20;55.90;20.40;94536.00;;;;10476837;28;46297;-65
2022/07/06 08:16:33;;;;;;;0.70;0.43;;;18.20;55.90;20.40;94534.00;;;;10477322;28;45684;-65
2022/07/06 08:21:55;;;;;;;0.35;0.35;;;18.20;55.90;20.40;94537.00;;;;10477362;28;45700;-65
2022/07/06 08:27:16;;;;;;;0.40;0.30;;;18.20;55.90;20.40;94520.00;;;;10476515;28;45122;-65
2022/07/06 08:32:39;;;;;;;0.52;0.43;;;18.20;55.90;20.40;94525.00;;;;10476451;28;45227;-65
2022/07/06 08:38:01;;;;;;;0.50;0.50;;;18.20;56.00;20.40;94520.00;;;;10476486;28;45758;-65
2022/07/06 08:43:21;;;;;;;1.02;0.50;;;18.20;56.00;20.40;94517.00;;;;10476712;28;45231;-66
2022/07/06 08:48:42;;;;;;;0.43;0.30;;;18.20;56.00;20.40;94531.00;;;;10476522;28;45873;-65
2022/07/06 08:54:05;;;;;;;0.77;0.50;;;18.20;56.00;20.40;94542.00;;;;10483920;28;45768;-62
2022/07/06 08:59:27;;;;;;;0.80;0.40;;;18.30;56.10;20.40;94527.00;;;;10482519;28;45099;-64
2022/07/06 09:04:49;;;;;;;0.52;0.40;;;18.30;56.00;20.40;94533.00;;;;10483225;28;45190;-64
2022/07/06 09:10:12;;;;;;;1.48;0.47;;;18.30;56.10;20.40;94546.00;;;;10482333;28;45162;-64
2022/07/06 09:15:33;;;;;;;0.50;0.40;;;18.20;56.10;20.40;94557.00;;;;10483223;28;45332;-65
2022/07/06 09:20:54;;;;;;;0.50;0.30;;;18.20;56.10;20.40;94549.00;;;;10482611;28;45129;-64
2022/07/06 09:26:16;;;;;;;0.70;0.40;;;18.20;56.20;20.40;94552.00;;;;10482243;28;45713;-64
2022/07/06 09:31:36;;;;;;;0.68;0.40;;;18.20;56.20;20.40;94544.00;;;;10482056;28;45184;-64
2022/07/06 09:36:56;;;;;;;0.57;0.40;;;18.20;56.20;20.40;94561.00;;;;10482262;28;45219;-64
2022/07/06 09:42:26;;;;;;;0.57;0.40;;;18.20;56.20;20.50;94564.00;;;;10458164;28;45207;-62
2022/07/06 09:47:48;;;;;;;0.77;0.32;;;18.30;56.10;20.50;94558.00;;;;10466929;28;45135;-62
2022/07/06 09:53:09;;;;;;;1.90;0.45;;;18.40;56.10;20.50;94546.00;;;;10445360;28;45254;-67
2022/07/06 09:58:31;;;;;;;1.33;0.52;;;18.40;56.80;20.60;94553.00;;;;10449204;28;45956;-64
2022/07/06 10:03:51;;;;;;;1.10;0.40;;;18.50;56.80;20.60;94556.00;;;;10481262;28;45100;-63
2022/07/06 10:09:13;;;;;;;0.80;0.60;;;18.50;56.80;20.60;94535.00;;;;10480838;28;45765;-64
2022/07/06 10:14:35;;;;;;;1.33;0.70;;;18.50;56.90;20.70;94542.00;;;;10481374;28;45058;-62
2022/07/06 10:19:57;;;;;;;0.50;0.50;;;18.60;56.90;20.70;94545.00;;;;10481054;28;45166;-63
2022/07/06 10:25:19;;;;;;;1.48;0.40;;;18.60;56.90;20.70;94542.00;;;;10458875;28;45177;-63
2022/07/06 10:30:42;;;;;;;0.55;0.50;;;18.60;57.00;20.70;94556.00;;;;10437287;28;45231;-63
2022/07/06 10:36:04;;;;;;;1.83;0.60;;;18.60;56.90;20.70;94553.00;;;;10438764;28;45255;-64
2022/07/06 10:41:33;;;;;;;1.38;0.40;;;18.60;56.90;20.70;94528.00;;;;10438817;28;45129;-64
2022/07/06 10:46:58;;;;;;;1.00;0.60;;;18.60;56.90;20.70;94541.00;;;;10438459;28;45127;-63
2022/07/06 10:52:18;;;;;;;0.70;0.50;;;18.60;56.80;20.70;94541.00;;;;10438190;28;45246;-64
2022/07/06 10:57:53;;;;;;;1.77;0.55;;;18.50;56.80;20.60;94525.00;;;;10438044;28;45118;-62
2022/07/06 11:03:34;;;;;;;1.52;0.60;;;18.50;56.70;20.60;94529.00;;;;10438523;28;45208;-62
2022/07/06 11:08:57;;;;;;;1.38;0.50;;;18.50;56.70;20.60;94529.00;;;;10434749;28;45173;-61
2022/07/06 11:14:19;;;;;;;0.50;0.40;;;18.50;56.70;20.60;94523.00;;;;10437782;28;45187;-63
2022/07/06 11:19:50;;;;;;;0.90;0.52;;;18.50;56.70;20.60;94534.00;;;;10437393;28;45240;-62
2022/07/06 11:25:11;;;;;;;0.90;0.40;;;18.50;56.70;20.60;94526.00;;;;10437606;28;45551;-64
2022/07/06 11:30:33;;;;;;;0.63;0.50;;;18.50;56.70;20.60;94512.00;;;;10436679;28;45847;-63
2022/07/06 11:36:16;;;;;;;1.35;0.50;;;18.50;56.70;20.60;94516.00;;;;10436814;28;45316;-64
2022/07/06 11:41:37;;;;;;;0.77;0.50;;;18.40;56.60;20.60;94496.00;;;;10436415;28;45143;-63
2022/07/06 11:47:00;;;;;;;0.90;0.60;;;18.40;56.60;20.60;94493.00;;;;10436629;28;45783;-63
2022/07/06 11:52:23;;;;;;;1.23;0.47;;;18.40;56.60;20.60;94495.00;;;;10436202;28;45183;-64
2022/07/06 11:57:44;;;;;;;0.60;0.50;;;18.40;56.70;20.70;94498.00;;;;10467176;28;45787;-63
2022/07/06 12:03:05;;;;;;;3.47;0.50;;;18.50;56.60;20.70;94497.00;;;;10494325;22;45778;-63
2022/07/06 12:08:26;;;;;;;0.93;0.60;;;18.60;56.70;20.70;94503.00;;;;10434586;28;45234;-65
2022/07/06 12:13:47;;;;;;;2.25;0.68;;;18.60;56.50;20.70;94500.00;;;;10405588;28;45769;-64
2022/07/06 12:19:11;;;;;;;2.45;0.70;;;18.70;56.60;20.80;94509.00;;;;10402749;28;45314;-67
2022/07/06 12:24:35;;;;;;;1.88;0.68;;;18.70;56.50;20.80;94488.00;;;;10435044;28;45220;-65
2022/07/06 12:30:09;;;;;;;1.10;0.60;;;18.70;56.70;20.80;94513.00;;;;10440779;28;45126;-62
2022/07/06 12:35:30;;;;;;;1.08;0.60;;;18.70;56.50;20.80;94490.00;;;;10441156;28;45200;-66
2022/07/06 12:40:52;;;;;;;0.88;0.52;;;18.70;56.60;20.80;94494.00;;;;10440688;28;45152;-66
2022/07/06 12:46:30;;;;;;;2.83;0.52;;;18.70;56.60;20.90;94497.00;;;;10440382;28;45680;-66
2022/07/06 12:51:57;;;;;;;1.27;0.60;;;18.70;56.50;20.90;94474.00;;;;10440537;28;45212;-65
2022/07/06 12:57:23;;;;;;;2.40;0.60;;;18.80;56.50;20.90;94494.00;;;;10440060;28;45693;-62
2022/07/06 13:02:46;;;;;;;1.58;0.90;;;18.80;56.50;20.90;94489.00;;;;10439824;28;45200;-63
2022/07/06 13:08:08;;;;;;;3.05;0.75;;;18.80;56.60;20.90;94482.00;;;;10439738;28;45207;-64
2022/07/06 13:13:30;;;;;;;3.05;0.50;;;18.80;56.60;20.90;94463.00;;;;10452276;28;45224;-66
2022/07/06 13:18:50;;;;;;;2.75;0.52;;;18.80;57.00;21.00;94483.00;;;;10421893;28;45215;-65
2022/07/06 13:24:11;;;;;;;2.17;0.60;;;18.80;56.80;21.00;94476.00;;;;10398934;28;45781;-65
2022/07/06 13:29:33;;;;;;;2.53;0.57;;;18.90;56.80;21.00;94475.00;;;;10398144;28;45688;-65
2022/07/06 13:34:54;;;;;;;1.27;0.50;;;18.90;56.50;21.00;94470.00;;;;10398118;28;45183;-65
2022/07/06 13:40:14;;;;;;;0.93;0.40;;;18.90;56.40;21.00;94470.00;;;;10397626;28;45215;-64
2022/07/06 13:45:37;;;;;;;1.25;0.57;;;18.90;56.40;21.00;94471.00;;;;10397418;28;45693;-65
2022/07/06 13:50:57;;;;;;;3.50;1.00;;;18.90;56.40;21.00;94464.00;;;;10397855;28;45399;-65
2022/07/06 13:56:18;;;;;;;1.63;0.68;;;18.90;56.30;21.00;94464.00;;;;10396984;28;45220;-65
2022/07/06 14:01:40;;;;;;;2.75;0.57;;;18.90;56.10;21.00;94461.00;;;;10397173;28;45794;-64
2022/07/06 14:07:00;;;;;;;2.03;0.85;;;18.90;56.10;21.00;94467.00;;;;10396266;28;45312;-64
2022/07/06 14:12:23;;;;;;;1.27;0.52;;;18.90;56.10;21.10;94464.00;;;;10397297;28;45330;-65
2022/07/06 14:17:45;;;;;;;2.30;0.60;;;18.90;56.10;21.00;94449.00;;;;10396408;28;45287;-65
2022/07/06 14:23:05;;;;;;;1.58;0.68;;;18.90;56.10;21.10;94452.00;;;;10396532;28;45123;-64
2022/07/06 14:28:26;;;;;;;1.23;0.60;;;18.90;56.10;21.10;94444.00;;;;10396072;28;45153;-64
2022/07/06 14:33:48;;;;;;;1.85;0.70;;;19.00;56.00;21.10;94446.00;;;;10396172;28;45666;-65
2022/07/06 14:39:08;;;;;;;1.48;0.80;;;18.90;55.90;21.10;94443.00;;;;10395808;28;45154;-65
2022/07/06 14:44:29;;;;;;;2.00;0.70;;;19.00;55.90;21.10;94437.00;;;;10396162;28;45771;-65
2022/07/06 14:49:52;;;;;;;1.23;0.57;;;19.00;55.80;21.10;94417.00;;;;10392665;28;45185;-65
2022/07/06 14:55:12;;;;;;;0.50;0.40;;;19.00;55.60;21.00;94419.00;;;;10390437;28;45583;-65
2022/07/06 15:00:33;;;;;;;0.45;0.45;;;18.90;55.40;21.10;94425.00;;;;10395008;28;45841;-66
2022/07/06 15:05:55;;;;;;;0.65;0.50;;;19.00;54.80;21.10;94432.00;;;;10394692;28;45205;-65
2022/07/06 15:11:16;;;;;;;1.27;0.50;;;19.00;54.60;21.10;94425.00;;;;10395618;28;45150;-65
2022/07/06 15:16:36;;;;;;;1.20;0.60;;;19.00;54.70;21.10;94422.00;;;;10394950;28;45110;-66
2022/07/06 15:21:58;;;;;;;0.73;0.50;;;19.00;54.60;21.10;94409.00;;;;10396097;28;45685;-66
2022/07/06 15:27:19;;;;;;;1.10;0.50;;;19.00;54.60;21.10;94406.00;;;;10392711;28;45722;-66
2022/07/06 15:32:40;;;;;;;2.20;0.60;;;19.00;54.50;21.10;94412.00;;;;10389449;28;45251;-66
2022/07/06 15:38:01;;;;;;;1.30;0.82;;;19.00;54.50;21.10;94417.00;;;;10394089;28;45203;-66
2022/07/06 15:43:22;;;;;;;1.08;0.63;;;19.00;54.70;21.10;94414.00;;;;10394689;28;45240;-66
2022/07/06 15:48:43;;;;;;;0.50;0.50;;;19.00;54.50;21.20;94404.00;;;;10394339;28;45725;-66
2022/07/06 15:54:05;;;;;;;0.90;0.50;;;19.10;54.60;21.20;94411.00;;;;10392040;28;45763;-66
2022/07/06 15:59:25;;;;;;;0.90;0.60;;;19.10;54.60;21.20;94398.00;;;;10387125;28;45207;-65
2022/07/06 16:04:46;;;;;;;0.75;0.47;;;19.10;54.60;21.20;94394.00;;;;10388674;28;45458;-66
2022/07/06 16:10:09;;;;;;;0.65;0.50;;;19.10;54.60;21.30;94397.00;;;;10392748;28;45270;-67
2022/07/06 16:15:30;;;;;;;0.70;0.60;;;19.10;54.60;21.30;94388.00;;;;10393581;28;45214;-65
2022/07/06 16:20:50;;;;;;;1.63;0.70;;;19.20;54.50;21.20;94393.00;;;;10391789;28;45296;-66
2022/07/06 16:26:13;;;;;;;1.45;0.70;;;19.10;54.40;21.30;94396.00;;;;10393079;28;45288;-66
2022/07/06 16:31:33;;;;;;;1.67;0.50;;;19.20;54.50;21.20;94371.00;;;;10393158;28;45795;-67
2022/07/06 16:36:54;;;;;;;1.42;0.80;;;19.10;54.50;21.20;94385.00;;;;10371557;28;45268;-67
2022/07/06 16:42:17;;;;;;;0.75;0.40;;;19.10;54.60;21.20;94396.00;;;;10352719;28;45218;-67
2022/07/06 16:47:38;;;;;;;1.77;0.73;;;19.10;54.60;21.10;94392.00;;;;10357514;28;45130;-66
2022/07/06 16:52:58;;;;;;;0.57;0.52;;;19.00;54.70;21.10;94394.00;;;;10393036;28;45152;-66
2022/07/06 16:58:20;;;;;;;0.80;0.60;;;19.00;54.70;21.10;94393.00;;;;10392901;28;45207;-66
2022/07/06 17:03:41;;;;;;;2.47;0.60;;;19.00;54.70;21.10;94406.00;;;;10367565;28;45175;-66
2022/07/06 17:09:01;;;;;;;0.88;0.60;;;19.00;54.80;21.10;94401.00;;;;10350463;28;45236;-66
2022/07/06 17:14:23;;;;;;;0.55;0.50;;;19.00;54.90;21.10;94411.00;;;;10357986;28;45149;-64
2022/07/06 17:19:44;;;;;;;1.88;0.80;;;18.90;55.00;21.10;94403.00;;;;10384130;28;45387;-66
2022/07/06 17:25:06;;;;;;;0.65;0.57;;;18.90;54.90;21.00;94401.00;;;;10398566;28;45148;-65
2022/07/06 17:30:29;;;;;;;1.00;0.60;;;18.90;55.00;21.00;94418.00;;;;10398449;28;45737;-65
2022/07/06 17:35:49;;;;;;;1.10;0.60;;;18.90;55.00;21.00;94420.00;;;;10398867;28;45185;-66
2022/07/06 17:41:10;;;;;;;0.75;0.50;;;18.90;55.10;21.00;94418.00;;;;10397663;28;45791;-66
2022/07/06 17:46:32;;;;;;;0.50;0.50;;;18.80;55.10;21.00;94421.00;;;;10386504;28;45179;-67
2022/07/06 17:51:54;;;;;;;0.75;0.60;;;18.80;55.20;21.00;94423.00;;;;10393695;28;45261;-66
2022/07/06 17:57:14;;;;;;;0.88;0.70;;;18.80;55.10;21.00;94423.00;;;;10393305;28;45855;-66
2022/07/06 18:02:36;;;;;;;2.10;0.60;;;18.80;55.10;21.00;94428.00;;;;10362291;28;45212;-66
2022/07/06 18:07:57;;;;;;;0.90;0.70;;;18.80;55.10;21.00;94436.00;;;;10397354;28;45215;-64
2022/07/06 18:13:17;;;;;;;0.90;0.57;;;18.90;55.10;21.00;94421.00;;;;10395431;28;45720;-65
2022/07/06 18:18:39;;;;;;;1.50;0.57;;;18.90;55.10;21.00;94447.00;;;;10395211;28;45376;-65
2022/07/06 18:24:00;;;;;;;1.10;0.60;;;18.90;55.00;21.00;94425.00;;;;10397622;28;45326;-65
2022/07/06 18:29:20;;;;;;;0.73;0.50;;;18.90;55.20;20.90;94426.00;;;;10397435;28;45136;-65
2022/07/06 18:34:42;;;;;;;0.60;0.60;;;18.80;55.10;20.90;94441.00;;;;10397889;28;45443;-66
2022/07/06 18:40:03;;;;;;;1.45;0.60;;;18.80;55.30;20.90;94437.00;;;;10396635;28;45227;-65
2022/07/06 18:45:24;;;;;;;0.70;0.70;;;18.80;55.30;20.90;94446.00;;;;10397346;28;45712;-65
2022/07/06 18:50:48;;;;;;;0.80;0.60;;;18.90;55.40;20.90;94441.00;;;;10396501;28;45177;-65
2022/07/06 18:56:08;;;;;;;0.80;0.70;;;18.70;55.40;20.80;94445.00;;;;10396003;28;45875;-65
2022/07/06 19:01:29;;;;;;;0.68;0.60;;;18.70;55.50;20.80;94460.00;;;;10396436;28;45132;-66
2022/07/06 19:06:51;;;;;;;0.88;0.70;;;18.70;55.60;20.80;94461.00;;;;10396167;28;45149;-65
2022/07/06 19:12:11;;;;;;;0.60;0.50;;;18.70;55.60;20.80;94473.00;;;;10396452;28;45332;-65
2022/07/06 19:17:33;;;;;;;0.85;0.65;;;18.70;55.50;20.80;94485.00;;;;10395826;28;45141;-68
2022/07/06 19:22:55;;;;;;;1.67;0.77;;;18.60;55.30;20.70;94476.00;;;;10395811;28;45212;-65
2022/07/06 19:28:16;;;;;;;1.42;0.65;;;18.60;55.40;20.70;94484.00;;;;10394682;28;45168;-65
2022/07/06 19:33:36;;;;;;;0.90;0.60;;;18.60;55.50;20.70;94473.00;;;;10395463;28;45394;-66
2022/07/06 19:38:58;;;;;;;1.48;0.60;;;18.60;55.60;20.70;94488.00;;;;10394913;28;45680;-66
2022/07/06 19:44:18;;;;;;;0.50;0.50;;;18.60;55.50;20.70;94483.00;;;;10394948;28;45701;-66
2022/07/06 19:49:39;;;;;;;0.90;0.70;;;18.50;55.40;20.70;94498.00;;;;10393736;28;45681;-65
2022/07/06 19:55:01;;;;;;;0.80;0.70;;;18.50;55.60;20.70;94490.00;;;;10394171;28;45177;-66
2022/07/06 20:00:21;;;;;;;0.63;0.50;;;18.50;55.50;20.70;94507.00;;;;10392741;28;45693;-65
2022/07/06 20:05:43;;;;;;;0.65;0.50;;;18.50;55.40;20.70;94517.00;;;;10390998;28;45464;-66
2022/07/06 20:11:05;;;;;;;0.85;0.60;;;18.50;55.40;20.70;94504.00;;;;10390999;28;45788;-66
2022/07/06 20:16:25;;;;;;;0.60;0.60;;;18.50;55.40;20.70;94525.00;;;;10394074;28;45212;-66
2022/07/06 20:21:46;;;;;;;0.82;0.70;;;18.50;55.30;20.70;94533.00;;;;10394974;28;45777;-66
2022/07/06 20:27:07;;;;;;;0.82;0.70;;;18.50;55.30;20.70;94529.00;;;;10394695;28;45169;-65
2022/07/06 20:32:28;;;;;;;0.55;0.40;;;18.50;55.20;20.70;94529.00;;;;10394534;28;45407;-66
2022/07/06 20:37:48;;;;;;;0.60;0.50;;;18.50;55.20;20.70;94517.00;;;;10394328;28;45889;-66
2022/07/06 20:43:10;;;;;;;0.50;0.50;;;18.50;55.10;20.70;94543.00;;;;10394046;28;45190;-66
2022/07/06 20:48:31;;;;;;;0.50;0.50;;;18.50;55.10;20.60;94545.00;;;;10400401;28;45118;-66
2022/07/06 20:53:52;;;;;;;1.42;0.50;;;18.40;55.10;20.60;94543.00;;;;10400945;28;45193;-66
2022/07/06 20:59:14;;;;;;;1.40;0.70;;;18.40;54.90;20.60;94540.00;;;;10400832;28;45252;-65
2022/07/06 21:04:35;;;;;;;0.73;0.40;;;18.50;54.50;20.60;94544.00;;;;10400997;28;45438;-66
2022/07/06 21:09:55;;;;;;;0.52;0.50;;;18.50;54.50;20.60;94542.00;;;;10400621;28;45197;-65
2022/07/06 21:15:17;;;;;;;0.63;0.40;;;18.40;54.40;20.60;94544.00;;;;10400612;28;45164;-66
2022/07/06 21:20:38;;;;;;;0.60;0.50;;;18.40;54.50;20.60;94552.00;;;;10400376;28;45168;-65
2022/07/06 21:25:58;;;;;;;0.98;0.60;;;18.40;54.80;20.60;94548.00;;;;10399769;28;45754;-66
2022/07/06 21:31:20;;;;;;;0.60;0.60;;;18.40;54.90;20.60;94552.00;;;;10400016;28;45209;-66
2022/07/06 21:36:41;;;;;;;0.45;0.45;;;18.40;54.80;20.60;94529.00;;;;10399908;28;45152;-66
2022/07/06 21:42:02;;;;;;;0.98;0.50;;;18.40;54.90;20.60;94532.00;;;;10399570;28;45150;-66
2022/07/06 21:47:23;;;;;;;0.30;0.30;;;18.40;54.90;20.60;94541.00;;;;10399499;28;45699;-66
2022/07/06 21:52:44;;;;;;;0.50;0.40;;;18.40;54.60;20.60;94541.00;;;;10399071;28;45137;-66
2022/07/06 21:58:05;;;;;;;0.40;0.40;;;18.40;54.70;20.60;94527.00;;;;10395478;28;45304;-66
2022/07/06 22:03:27;;;;;;;0.52;0.40;;;18.40;54.70;20.60;94547.00;;;;10395718;28;45167;-66
2022/07/06 22:08:48;;;;;;;0.88;0.50;;;18.40;55.40;20.60;94543.00;;;;10398621;28;45241;-66
2022/07/06 22:14:08;;;;;;;0.50;0.40;;;18.40;54.70;20.60;94554.00;;;;10398446;28;45255;-66
2022/07/06 22:19:30;;;;;;;0.50;0.40;;;18.40;54.70;20.50;94554.00;;;;10398237;28;45199;-66
2022/07/06 22:24:51;;;;;;;0.77;0.40;;;18.40;54.80;20.50;94556.00;;;;10398336;28;45225;-66
2022/07/06 22:30:12;;;;;;;0.40;0.40;;;18.40;54.80;20.50;94563.00;;;;10397796;28;45187;-66
2022/07/06 22:35:34;;;;;;;0.63;0.50;;;18.40;54.80;20.50;94576.00;;;;10397877;28;45804;-66
2022/07/06 22:41:01;;;;;;;0.60;0.50;;;18.30;54.70;20.50;94568.00;;;;10397260;28;45713;-66
2022/07/06 22:46:21;;;;;;;0.50;0.40;;;18.40;54.80;20.50;94561.00;;;;10397186;28;45763;-66
2022/07/06 22:51:43;;;;;;;0.50;0.40;;;18.40;54.80;20.50;94556.00;;;;10397324;28;45160;-66
2022/07/06 22:57:05;;;;;;;1.08;0.50;;;18.30;54.60;20.50;94544.00;;;;10397024;28;45136;-66
2022/07/06 23:02:27;;;;;;;0.77;0.40;;;18.30;54.60;20.50;94549.00;;;;10396644;28;45318;-66
2022/07/06 23:07:49;;;;;;;1.23;0.50;;;18.30;54.60;20.50;94560.00;;;;10396334;28;45225;-66
2022/07/06 23:13:10;;;;;;;0.30;0.30;;;18.30;54.60;20.50;94559.00;;;;10396622;28;45226;-65
2022/07/06 23:18:30;;;;;;;0.45;0.43;;;18.30;54.40;20.50;94545.00;;;;10396664;28;45222;-66
2022/07/06 23:23:52;;;;;;;0.30;0.30;;;18.30;54.40;20.40;94543.00;;;;10396279;28;45272;-66
2022/07/06 23:29:13;;;;;;;0.20;0.20;;;18.30;54.50;20.50;94557.00;;;;10396165;28;45082;-66
2022/07/06 23:34:33;;;;;;;0.40;0.40;;;18.30;54.40;20.40;94541.00;;;;10396149;28;45184;-66